Time;durP1;ratioP1;P1;durP2;ratioP2;P2;SDS_P1;SDS_P2;PMS_P1;PMS_P2;Temp;Humidity;BMP_temperature;BMP_pressure;BME280_temperature;BME280_humidity;BME280_pressure;Samples;Min_cycle;Max_cycle;Signal;HPM_P1;HPM_P2
2023/04/26 00:02:16;;;;;;;17.80;10.00;;;8.30;34.90;;;;;;5122859;27;20474;-65
2023/04/26 00:04:45;;;;;;;16.73;10.80;;;8.30;35.00;;;;;;5121258;27;20466;-65
2023/04/26 00:07:12;;;;;;;20.27;10.70;;;8.30;34.70;;;;;;5114029;27;20475;-65
2023/04/26 00:09:43;;;;;;;16.97;9.80;;;8.30;34.80;;;;;;5119358;27;20512;-65
2023/04/26 00:12:10;;;;;;;15.10;10.40;;;8.30;34.90;;;;;;5121985;27;20499;-64
2023/04/26 00:14:37;;;;;;;17.30;10.80;;;8.30;34.80;;;;;;5128538;27;20447;-65
2023/04/26 00:17:04;;;;;;;19.40;12.07;;;8.30;34.90;;;;;;5116005;27;20483;-64
2023/04/26 00:19:31;;;;;;;16.40;11.30;;;8.30;35.00;;;;;;5124334;27;20462;-64
2023/04/26 00:21:58;;;;;;;17.93;11.17;;;8.30;34.70;;;;;;5124547;27;20475;-65
2023/04/26 00:24:25;;;;;;;17.73;11.40;;;8.30;34.90;;;;;;5124822;27;20481;-66
2023/04/26 00:26:55;;;;;;;16.77;11.53;;;8.30;34.90;;;;;;5122759;27;20486;-64
2023/04/26 00:29:22;;;;;;;16.67;10.80;;;8.40;34.70;;;;;;5120951;27;20459;-65
2023/04/26 00:31:48;;;;;;;16.13;11.13;;;8.40;34.60;;;;;;5120635;27;21031;-66
2023/04/26 00:34:15;;;;;;;19.60;11.63;;;8.40;34.50;;;;;;5127814;27;20450;-64
2023/04/26 00:36:42;;;;;;;14.07;10.27;;;8.40;34.60;;;;;;5117418;27;20545;-64
2023/04/26 00:39:09;;;;;;;15.00;9.87;;;8.40;34.70;;;;;;5121779;27;20486;-65
2023/04/26 00:41:36;;;;;;;17.83;10.80;;;8.40;34.60;;;;;;5120191;27;20462;-65
2023/04/26 00:44:05;;;;;;;17.43;10.97;;;8.40;34.80;;;;;;5123438;27;20474;-65
2023/04/26 00:46:32;;;;;;;17.00;10.63;;;8.30;35.10;;;;;;5115463;27;20506;-65
2023/04/26 00:48:58;;;;;;;18.53;10.17;;;8.30;35.10;;;;;;5119956;27;20479;-65
2023/04/26 00:51:26;;;;;;;19.20;10.37;;;8.30;34.90;;;;;;5127471;27;20458;-65
2023/04/26 00:53:53;;;;;;;14.80;8.80;;;8.20;34.80;;;;;;5126145;27;20458;-65
2023/04/26 00:56:23;;;;;;;17.23;9.50;;;8.20;34.80;;;;;;5124026;27;20467;-65
2023/04/26 01:01:21;;;;;;;17.50;9.67;;;8.10;34.60;;;;;;5071339;28;20449;-67
2023/04/26 01:03:47;;;;;;;19.40;11.07;;;8.10;34.60;;;;;;5067105;28;20926;-67
2023/04/26 01:06:14;;;;;;;17.83;9.83;;;8.10;34.60;;;;;;5061230;28;20469;-67
2023/04/26 01:08:41;;;;;;;15.30;10.90;;;8.10;34.80;;;;;;5079268;28;20554;-67
2023/04/26 01:11:08;;;;;;;21.37;11.50;;;8.10;34.70;;;;;;5083347;28;20464;-68
2023/04/26 01:13:36;;;;;;;19.53;10.80;;;8.10;34.80;;;;;;5083289;28;20476;-67
2023/04/26 01:16:04;;;;;;;15.20;10.30;;;8.10;34.60;;;;;;5087831;28;20464;-67
2023/04/26 01:18:32;;;;;;;17.33;11.37;;;8.10;34.70;;;;;;5081055;28;20487;-67
2023/04/26 01:20:58;;;;;;;19.40;9.67;;;8.10;34.70;;;;;;5088381;28;20460;-67
2023/04/26 01:23:27;;;;;;;17.37;10.40;;;8.10;34.90;;;;;;5083312;28;20475;-68
2023/04/26 01:25:55;;;;;;;22.73;11.30;;;8.10;34.50;;;;;;5085198;28;20535;-67
2023/04/26 01:28:22;;;;;;;19.60;10.60;;;8.10;34.50;;;;;;5080412;28;20551;-68
2023/04/26 01:30:49;;;;;;;17.93;9.70;;;8.10;34.60;;;;;;5088670;28;20495;-67
2023/04/26 01:33:16;;;;;;;19.00;9.70;;;8.10;34.30;;;;;;5089606;28;20925;-67
2023/04/26 01:35:42;;;;;;;12.53;7.83;;;8.10;34.10;;;;;;5089046;28;20465;-67
2023/04/26 01:38:09;;;;;;;14.47;7.37;;;8.20;34.20;;;;;;5080025;28;20495;-67
2023/04/26 01:40:37;;;;;;;14.97;7.57;;;8.20;33.80;;;;;;5079067;28;20461;-67
2023/04/26 01:43:04;;;;;;;13.33;6.80;;;8.10;32.90;;;;;;5088310;28;20472;-65
2023/04/26 01:45:31;;;;;;;11.67;7.60;;;8.10;32.20;;;;;;5087077;28;20468;-65
2023/04/26 01:47:57;;;;;;;13.20;7.40;;;8.00;32.00;;;;;;5081610;28;20488;-65
2023/04/26 01:50:24;;;;;;;14.43;7.50;;;8.00;31.80;;;;;;5083048;28;20560;-65
2023/04/26 01:52:51;;;;;;;13.40;7.10;;;8.00;31.70;;;;;;5088595;28;20471;-65
2023/04/26 01:55:18;;;;;;;12.87;7.23;;;7.90;31.80;;;;;;5083477;28;20498;-65
2023/04/26 01:57:46;;;;;;;13.30;8.37;;;7.90;32.10;;;;;;5083438;28;21067;-65
2023/04/26 02:00:13;;;;;;;12.00;7.50;;;7.80;32.10;;;;;;5090454;28;20467;-65
2023/04/26 02:02:40;;;;;;;14.00;9.57;;;7.80;32.10;;;;;;5085414;28;20507;-65
2023/04/26 02:05:09;;;;;;;12.73;7.00;;;7.80;31.90;;;;;;5081988;28;20871;-65
2023/04/26 02:07:36;;;;;;;14.17;8.00;;;7.80;31.80;;;;;;5084553;28;20487;-64
2023/04/26 02:10:02;;;;;;;12.67;7.47;;;7.80;31.80;;;;;;5087870;28;20826;-64
2023/04/26 02:12:29;;;;;;;14.60;8.77;;;7.80;31.80;;;;;;5090753;28;20504;-64
2023/04/26 02:14:57;;;;;;;15.43;8.77;;;7.80;32.00;;;;;;5082507;28;20464;-65
2023/04/26 02:17:25;;;;;;;16.43;8.83;;;7.80;32.10;;;;;;5089977;28;20481;-64
2023/04/26 02:19:52;;;;;;;11.60;7.33;;;7.80;32.20;;;;;;5090010;28;20485;-65
2023/04/26 02:22:19;;;;;;;15.33;9.07;;;7.80;32.20;;;;;;5095109;28;20459;-65
2023/04/26 02:24:46;;;;;;;12.07;7.30;;;7.70;32.00;;;;;;5083233;28;20541;-64
2023/04/26 02:27:13;;;;;;;15.30;6.90;;;7.70;31.70;;;;;;5093975;28;20700;-65
2023/04/26 02:29:40;;;;;;;14.03;7.60;;;7.70;31.50;;;;;;5090506;28;20968;-65
2023/04/26 02:32:08;;;;;;;21.67;8.13;;;7.70;31.80;;;;;;5091839;28;20479;-65
2023/04/26 02:34:35;;;;;;;12.20;7.47;;;7.70;32.20;;;;;;5088097;28;20476;-65
2023/04/26 02:37:03;;;;;;;17.67;7.43;;;7.70;32.40;;;;;;5086270;28;20460;-65
2023/04/26 02:39:30;;;;;;;13.23;7.77;;;7.60;32.10;;;;;;5082922;28;20475;-65
2023/04/26 02:41:57;;;;;;;15.93;7.17;;;7.60;32.00;;;;;;5087644;28;20464;-65
2023/04/26 02:44:24;;;;;;;12.40;7.50;;;7.60;32.00;;;;;;5086910;28;20513;-65
2023/04/26 02:46:51;;;;;;;16.60;8.40;;;7.60;32.20;;;;;;5085154;28;20457;-65
2023/04/26 02:49:19;;;;;;;14.00;7.67;;;7.60;32.50;;;;;;5092911;28;20455;-65
2023/04/26 02:51:45;;;;;;;13.13;8.07;;;7.50;32.70;;;;;;5081887;28;20460;-66
2023/04/26 02:54:12;;;;;;;12.30;8.17;;;7.50;32.90;;;;;;5080890;28;20464;-66
2023/04/26 02:56:39;;;;;;;12.70;7.60;;;7.50;33.30;;;;;;5086458;28;20468;-66
2023/04/26 02:59:06;;;;;;;15.03;8.70;;;7.50;33.60;;;;;;5085381;28;20474;-66
2023/04/26 03:01:32;;;;;;;14.20;9.10;;;7.50;33.70;;;;;;5086444;27;20529;-66
2023/04/26 03:03:59;;;;;;;13.10;8.90;;;7.50;34.10;;;;;;5081182;28;20477;-66
2023/04/26 03:06:28;;;;;;;12.50;8.07;;;7.50;34.40;;;;;;5083656;28;20468;-66
2023/04/26 03:08:55;;;;;;;13.73;7.87;;;7.50;34.90;;;;;;5080439;28;20484;-66
2023/04/26 03:11:22;;;;;;;16.23;8.93;;;7.50;34.70;;;;;;5085103;28;20465;-66
2023/04/26 03:13:48;;;;;;;16.50;8.87;;;7.50;34.90;;;;;;5084716;28;21205;-66
2023/04/26 03:16:15;;;;;;;14.30;9.00;;;7.40;34.80;;;;;;5087597;28;20483;-66
2023/04/26 03:18:42;;;;;;;14.60;8.57;;;7.40;34.90;;;;;;5078524;28;20571;-66
2023/04/26 03:21:09;;;;;;;13.87;9.20;;;7.40;34.80;;;;;;5085888;28;20495;-65
2023/04/26 03:23:37;;;;;;;14.73;8.70;;;7.40;34.70;;;;;;5085892;28;20840;-66
2023/04/26 03:26:04;;;;;;;15.93;9.10;;;7.40;34.60;;;;;;5083490;28;20971;-66
2023/04/26 03:28:31;;;;;;;16.93;8.50;;;7.40;34.50;;;;;;5083766;28;20488;-66
2023/04/26 03:30:57;;;;;;;15.80;8.40;;;7.40;34.30;;;;;;5082969;27;21076;-66
2023/04/26 03:33:24;;;;;;;17.23;8.63;;;7.40;34.40;;;;;;5088553;28;20468;-66
2023/04/26 03:35:51;;;;;;;17.73;9.37;;;7.40;34.60;;;;;;5084217;28;20499;-66
2023/04/26 03:38:17;;;;;;;16.63;10.10;;;7.40;34.50;;;;;;5090907;28;20569;-66
2023/04/26 03:40:45;;;;;;;17.13;9.50;;;7.40;34.90;;;;;;5093881;28;20477;-66
2023/04/26 03:43:12;;;;;;;17.10;9.53;;;7.30;35.00;;;;;;5095214;28;20459;-66
2023/04/26 03:45:39;;;;;;;16.30;8.93;;;7.30;35.10;;;;;;5092082;28;20472;-66
2023/04/26 03:48:06;;;;;;;17.43;8.87;;;7.30;35.00;;;;;;5086112;28;20505;-66
2023/04/26 03:50:33;;;;;;;16.50;9.10;;;7.30;35.20;;;;;;5093771;28;20463;-65
2023/04/26 03:53:00;;;;;;;14.80;9.77;;;7.30;35.20;;;;;;5091079;28;20479;-66
2023/04/26 03:55:26;;;;;;;15.60;9.33;;;7.30;35.20;;;;;;5089956;28;20865;-66
2023/04/26 03:57:54;;;;;;;15.27;8.87;;;7.30;35.30;;;;;;5093978;28;21302;-66
2023/04/26 04:00:21;;;;;;;12.87;9.10;;;7.30;35.50;;;;;;5090296;27;20472;-66
2023/04/26 04:02:48;;;;;;;14.90;9.57;;;7.30;35.50;;;;;;5094329;28;21177;-66
2023/04/26 04:05:15;;;;;;;21.77;9.70;;;7.20;35.60;;;;;;5091607;28;20480;-66
2023/04/26 04:07:42;;;;;;;15.53;9.37;;;7.20;35.60;;;;;;5087454;28;20498;-66
2023/04/26 04:10:10;;;;;;;16.40;9.83;;;7.20;35.70;;;;;;5096488;28;20470;-66
2023/04/26 04:12:37;;;;;;;13.13;9.10;;;7.20;35.60;;;;;;5087699;28;20541;-66
2023/04/26 04:15:06;;;;;;;14.50;9.20;;;7.20;35.60;;;;;;5095505;28;20494;-66
2023/04/26 04:17:32;;;;;;;22.80;10.40;;;7.20;35.60;;;;;;5086024;28;20572;-66
2023/04/26 04:19:59;;;;;;;19.60;10.53;;;7.20;35.50;;;;;;5090287;28;20467;-66
2023/04/26 04:22:26;;;;;;;13.03;8.87;;;7.30;35.60;;;;;;5093822;28;20844;-66
2023/04/26 04:24:53;;;;;;;17.73;9.77;;;7.30;35.60;;;;;;5093812;28;20483;-65
2023/04/26 04:27:20;;;;;;;15.73;10.57;;;7.30;36.10;;;;;;5088522;28;20492;-66
2023/04/26 04:29:47;;;;;;;15.03;10.03;;;7.20;36.90;;;;;;5091855;28;20483;-64
2023/04/26 04:32:16;;;;;;;17.47;10.80;;;7.10;37.20;;;;;;5087057;27;20472;-65
2023/04/26 04:34:43;;;;;;;22.10;11.03;;;7.10;36.80;;;;;;5091072;28;20463;-66
2023/04/26 04:37:10;;;;;;;18.70;11.97;;;7.20;36.90;;;;;;5087596;28;20476;-66
2023/04/26 04:39:37;;;;;;;17.80;10.87;;;7.20;36.90;;;;;;5085433;28;20888;-66
2023/04/26 04:42:04;;;;;;;19.20;11.37;;;7.20;36.80;;;;;;5090872;28;20460;-66
2023/04/26 04:44:30;;;;;;;17.00;12.17;;;7.30;36.80;;;;;;5082814;28;20484;-66
2023/04/26 04:46:57;;;;;;;18.63;10.90;;;7.30;36.60;;;;;;5082008;28;20467;-66
2023/04/26 04:49:25;;;;;;;15.23;10.97;;;7.30;36.60;;;;;;5084416;28;20452;-63
2023/04/26 04:51:52;;;;;;;17.83;11.90;;;7.30;36.70;;;;;;5091054;28;20452;-63
2023/04/26 04:54:19;;;;;;;19.27;10.87;;;7.40;36.50;;;;;;5086372;28;21219;-65
2023/04/26 04:56:46;;;;;;;18.47;11.33;;;7.40;36.40;;;;;;5086432;28;20553;-63
2023/04/26 04:59:12;;;;;;;20.73;11.97;;;7.50;36.60;;;;;;5084500;28;20461;-63
2023/04/26 05:01:39;;;;;;;18.30;10.73;;;7.50;36.50;;;;;;5083611;27;20475;-63
2023/04/26 05:04:06;;;;;;;22.80;11.23;;;7.50;36.50;;;;;;5076689;28;20576;-63
2023/04/26 05:06:35;;;;;;;18.80;11.60;;;7.60;36.40;;;;;;5086066;28;20468;-63
2023/04/26 05:09:01;;;;;;;17.67;11.47;;;7.70;36.40;;;;;;5083932;28;20558;-63
2023/04/26 05:11:28;;;;;;;19.20;12.30;;;7.80;36.40;;;;;;5086505;28;20456;-64
2023/04/26 05:13:55;;;;;;;20.03;12.13;;;8.00;36.60;;;;;;5084753;28;20460;-63
2023/04/26 05:16:22;;;;;;;18.40;11.37;;;8.30;36.20;;;;;;5077411;28;20486;-63
2023/04/26 05:18:48;;;;;;;16.20;10.90;;;8.40;36.10;;;;;;5086930;28;20565;-63
2023/04/26 05:21:15;;;;;;;15.07;10.33;;;8.50;35.60;;;;;;5090940;28;20460;-62
2023/04/26 05:23:44;;;;;;;17.07;11.03;;;8.60;35.00;;;;;;5087442;28;20457;-62
2023/04/26 05:26:15;;;;;;;15.37;10.27;;;8.70;34.80;;;;;;5084570;28;20986;-63
2023/04/26 05:28:42;;;;;;;17.73;11.03;;;8.80;34.60;;;;;;5088176;28;20567;-62
2023/04/26 05:31:09;;;;;;;16.70;11.33;;;9.00;34.20;;;;;;5078483;28;20961;-63
2023/04/26 05:33:36;;;;;;;14.47;10.50;;;9.10;33.80;;;;;;5067170;28;20951;-63
2023/04/26 05:36:03;;;;;;;18.70;11.67;;;9.10;33.40;;;;;;5068813;28;21091;-63
2023/04/26 05:38:30;;;;;;;16.30;11.10;;;9.20;33.20;;;;;;5051646;28;20489;-62
2023/04/26 05:40:59;;;;;;;16.83;11.23;;;9.30;33.10;;;;;;5063038;28;20937;-63
2023/04/26 05:43:25;;;;;;;20.17;12.43;;;9.40;32.60;;;;;;5061429;28;20472;-63
2023/04/26 05:45:52;;;;;;;18.90;11.07;;;9.50;32.20;;;;;;5057818;28;20501;-63
2023/04/26 05:48:20;;;;;;;16.77;10.50;;;9.70;32.10;;;;;;5051764;28;20485;-63
2023/04/26 05:50:47;;;;;;;16.80;11.30;;;9.80;31.40;;;;;;5054246;28;20534;-63
2023/04/26 05:53:14;;;;;;;16.80;11.13;;;9.90;30.80;;;;;;5059579;28;20465;-63
2023/04/26 05:55:41;;;;;;;16.27;11.37;;;10.00;30.40;;;;;;5063341;28;20468;-64
2023/04/26 05:58:10;;;;;;;14.00;10.53;;;10.30;29.80;;;;;;5052888;28;20480;-65
2023/04/26 06:00:37;;;;;;;17.00;10.73;;;10.50;28.40;;;;;;5064606;28;20475;-65
2023/04/26 06:05:29;;;;;;;14.30;10.10;;;10.90;27.00;;;;;;5073579;22;20609;-65
2023/04/26 06:07:56;;;;;;;14.83;9.63;;;12.00;24.90;;;;;;5078701;28;20205;-64
2023/04/26 06:10:23;;;;;;;12.50;8.97;;;13.80;19.40;;;;;;5080417;28;20548;-65
2023/04/26 06:12:49;;;;;;;16.20;9.30;;;15.20;15.80;;;;;;5068425;28;21092;-65
2023/04/26 06:15:18;;;;;;;11.83;8.67;;;16.80;13.30;;;;;;5070500;28;20485;-65
2023/04/26 06:17:45;;;;;;;14.67;8.83;;;18.40;9.00;;;;;;5077874;28;20479;-65
2023/04/26 06:20:11;;;;;;;14.00;10.40;;;19.00;6.70;;;;;;5079681;22;21191;-68
2023/04/26 06:22:38;;;;;;;14.57;10.03;;;19.00;6.50;;;;;;5078657;28;20528;-68
2023/04/26 06:25:06;;;;;;;14.80;9.57;;;18.60;6.30;;;;;;5056077;28;20485;-67
2023/04/26 06:27:33;;;;;;;16.97;11.20;;;18.20;6.70;;;;;;5056058;28;20473;-68
2023/04/26 06:30:00;;;;;;;14.33;9.90;;;17.70;7.10;;;;;;5051448;28;20556;-65
2023/04/26 06:32:28;;;;;;;15.87;10.07;;;17.60;7.50;;;;;;5057824;28;20482;-65
2023/04/26 06:34:55;;;;;;;14.77;9.93;;;19.40;6.20;;;;;;5053467;28;20998;-65
2023/04/26 06:37:22;;;;;;;15.67;10.10;;;21.30;1.40;;;;;;5058187;28;20535;-65
2023/04/26 06:39:48;;;;;;;17.63;11.00;;;21.90;1.00;;;;;;5057038;28;20465;-66
2023/04/26 06:42:15;;;;;;;16.60;11.77;;;23.00;1.00;;;;;;5056917;28;20487;-66
2023/04/26 06:44:42;;;;;;;15.80;10.73;;;24.40;1.00;;;;;;5063286;28;20532;-67
2023/04/26 06:47:10;;;;;;;17.97;10.40;;;23.60;1.00;;;;;;5052751;28;20476;-67
2023/04/26 06:49:38;;;;;;;18.70;11.53;;;22.40;1.00;;;;;;5055627;28;20470;-66
2023/04/26 06:52:06;;;;;;;13.77;9.83;;;23.50;1.00;;;;;;5050715;28;20473;-68
2023/04/26 06:54:33;;;;;;;13.97;9.50;;;25.80;1.00;;;;;;5055347;28;21184;-67
2023/04/26 06:57:00;;;;;;;14.80;9.90;;;25.40;1.00;;;;;;5064605;28;20457;-67
2023/04/26 06:59:27;;;;;;;13.93;9.63;;;24.10;1.00;;;;;;5050363;28;21010;-68
2023/04/26 07:01:54;;;;;;;16.63;10.40;;;22.80;1.00;;;;;;5080404;28;21105;-72
2023/04/26 07:04:20;;;;;;;14.27;9.73;;;21.40;1.00;;;;;;5082753;28;20484;-68
2023/04/26 07:06:49;;;;;;;18.27;11.07;;;20.20;1.00;;;;;;5075038;28;20475;-67
2023/04/26 07:09:15;;;;;;;17.23;10.80;;;19.10;1.00;;;;;;5071928;28;21264;-67
2023/04/26 07:11:42;;;;;;;19.13;11.43;;;18.20;2.40;;;;;;5083515;28;20467;-67
2023/04/26 07:14:11;;;;;;;19.17;11.87;;;17.40;3.90;;;;;;5080377;28;20484;-67
2023/04/26 07:16:38;;;;;;;16.13;10.80;;;16.80;5.30;;;;;;5077738;28;20923;-67
2023/04/26 07:19:06;;;;;;;17.17;11.47;;;16.20;6.50;;;;;;5077505;28;20461;-67
2023/04/26 07:21:33;;;;;;;15.97;10.67;;;15.70;7.40;;;;;;5096940;27;20467;-66
2023/04/26 07:24:01;;;;;;;18.40;10.43;;;15.40;8.30;;;;;;5100661;28;20487;-67
2023/04/26 07:26:28;;;;;;;15.83;9.47;;;15.00;9.00;;;;;;5097303;28;20991;-68
2023/04/26 07:28:55;;;;;;;15.10;10.70;;;14.60;9.70;;;;;;5096270;28;20738;-68
2023/04/26 07:31:22;;;;;;;16.40;11.33;;;14.40;10.50;;;;;;5105772;28;20475;-68
2023/04/26 07:33:49;;;;;;;18.60;11.30;;;14.10;11.10;;;;;;5103465;28;21003;-69
2023/04/26 07:36:16;;;;;;;15.90;9.90;;;13.90;11.50;;;;;;5099815;28;20552;-68
2023/04/26 07:38:43;;;;;;;21.83;11.50;;;13.80;12.00;;;;;;5103035;28;20550;-69
2023/04/26 07:41:11;;;;;;;19.30;12.03;;;13.80;12.30;;;;;;5104202;28;20463;-68
2023/04/26 07:43:38;;;;;;;16.53;10.57;;;14.10;12.30;;;;;;5103950;28;21474;-66
2023/04/26 07:46:05;;;;;;;16.43;9.53;;;14.20;11.70;;;;;;5102874;28;20556;-68
2023/04/26 07:48:32;;;;;;;18.93;10.80;;;14.20;11.20;;;;;;5101399;28;20836;-68
2023/04/26 07:51:07;;;;;;;21.87;10.80;;;14.10;11.40;;;;;;5100144;28;20467;-67
2023/04/26 07:53:34;;;;;;;16.57;10.10;;;14.10;11.50;;;;;;5099534;28;21782;-67
2023/04/26 07:56:01;;;;;;;15.43;10.60;;;14.10;10.60;;;;;;5102996;28;20947;-68
2023/04/26 07:58:31;;;;;;;15.67;9.90;;;14.70;12.10;;;;;;5093969;28;21137;-69
2023/04/26 08:00:58;;;;;;;13.67;9.30;;;18.70;8.80;;;;;;5103165;28;20661;-70
2023/04/26 08:03:26;;;;;;;16.97;10.57;;;22.20;1.30;;;;;;5110505;28;21017;-67
2023/04/26 08:05:53;;;;;;;14.70;10.40;;;23.90;1.00;;;;;;5119649;28;20503;-67
2023/04/26 08:08:21;;;;;;;18.40;10.93;;;24.60;1.00;;;;;;5113888;28;20522;-68
2023/04/26 08:10:48;;;;;;;15.70;10.60;;;25.30;1.00;;;;;;5107390;28;20516;-69
2023/04/26 08:13:15;;;;;;;14.83;9.70;;;24.80;1.00;;;;;;5104346;28;20487;-66
2023/04/26 08:15:43;;;;;;;14.53;8.90;;;23.90;1.00;;;;;;5101990;28;20479;-69
2023/04/26 08:18:10;;;;;;;16.37;10.40;;;22.90;1.00;;;;;;5100635;28;20470;-68
2023/04/26 08:20:37;;;;;;;11.93;8.83;;;21.90;1.00;;;;;;5102027;28;20983;-69
2023/04/26 08:23:04;;;;;;;14.83;8.93;;;20.90;1.00;;;;;;5106215;27;20465;-71
2023/04/26 08:25:33;;;;;;;12.83;8.70;;;20.20;1.00;;;;;;5106430;27;20486;-70
2023/04/26 08:28:00;;;;;;;18.30;8.73;;;20.00;1.00;;;;;;5102540;27;20525;-71
2023/04/26 08:30:28;;;;;;;14.13;8.07;;;19.60;1.00;;;;;;5093764;27;20467;-70
2023/04/26 08:32:56;;;;;;;14.80;7.47;;;19.30;1.00;;;;;;5098938;27;20563;-70
2023/04/26 08:35:23;;;;;;;14.10;9.03;;;18.90;1.00;;;;;;5101266;27;20459;-70
2023/04/26 08:37:50;;;;;;;18.53;8.60;;;18.40;1.00;;;;;;5106163;27;20483;-71
2023/04/26 08:40:22;;;;;;;11.67;8.13;;;18.30;1.00;;;;;;5105621;28;20494;-70
2023/04/26 08:42:49;;;;;;;13.60;8.80;;;20.40;1.00;;;;;;5097869;28;20826;-70
2023/04/26 08:45:16;;;;;;;12.60;8.93;;;20.50;1.00;;;;;;5102954;27;21040;-70
2023/04/26 08:47:45;;;;;;;12.80;8.23;;;20.00;1.00;;;;;;5102671;27;20459;-70
2023/04/26 08:50:15;;;;;;;16.53;8.73;;;19.50;1.00;;;;;;5105133;27;20474;-71
2023/04/26 08:52:43;;;;;;;12.97;7.97;;;19.00;1.00;;;;;;5107432;27;21033;-68
2023/04/26 08:55:11;;;;;;;15.63;9.60;;;18.80;1.00;;;;;;5098741;27;20487;-69
2023/04/26 08:57:39;;;;;;;12.20;9.30;;;19.80;1.00;;;;;;5092790;27;20570;-68
2023/04/26 09:00:09;;;;;;;13.30;7.87;;;20.60;1.00;;;;;;5097152;28;20459;-70
2023/04/26 09:02:36;;;;;;;15.10;9.07;;;19.90;1.00;;;;;;5094717;27;20518;-68
2023/04/26 09:05:05;;;;;;;13.23;6.60;;;20.30;1.00;;;;;;5098732;27;20583;-68
2023/04/26 09:07:39;;;;;;;11.20;7.67;;;24.30;1.00;;;;;;5100472;27;20564;-69
2023/04/26 09:10:07;;;;;;;11.73;7.07;;;28.00;1.00;;;;;;5101715;27;20463;-69
2023/04/26 09:12:35;;;;;;;11.00;7.53;;;29.00;1.00;;;;;;5099096;27;20466;-69
2023/04/26 09:15:03;;;;;;;12.00;8.50;;;27.30;1.00;;;;;;5098925;28;20540;-67
2023/04/26 09:17:32;;;;;;;12.77;9.00;;;25.70;1.00;;;;;;5097332;27;20755;-67
2023/04/26 09:19:59;;;;;;;11.70;7.97;;;24.30;1.00;;;;;;5102348;27;20474;-68
2023/04/26 09:22:35;;;;;;;12.83;7.50;;;23.00;1.00;;;;;;5104568;28;20470;-68
2023/04/26 09:25:03;;;;;;;11.27;7.53;;;22.00;1.00;;;;;;5095949;27;20478;-67
2023/04/26 09:27:35;;;;;;;14.37;7.50;;;21.70;1.00;;;;;;5101394;27;20463;-67
2023/04/26 09:30:06;;;;;;;10.50;7.10;;;24.10;1.00;;;;;;5103037;27;20457;-68
2023/04/26 09:32:49;;;;;;;10.67;7.20;;;24.30;1.00;;;;;;5098174;27;20471;-67
2023/04/26 09:35:26;;;;;;;11.13;7.10;;;23.40;1.00;;;;;;5104637;27;20498;-67
2023/04/26 09:37:57;;;;;;;12.20;7.03;;;22.50;1.00;;;;;;5094016;27;20467;-67
2023/04/26 09:40:26;;;;;;;9.77;6.10;;;21.80;1.00;;;;;;5101769;28;20501;-66
2023/04/26 09:43:01;;;;;;;10.67;7.13;;;21.20;1.00;;;;;;5106455;27;20578;-66
2023/04/26 09:45:29;;;;;;;9.60;6.50;;;20.60;1.00;;;;;;5100277;27;20537;-67
2023/04/26 09:48:12;;;;;;;11.20;7.70;;;20.20;1.00;;;;;;5093631;28;20860;-66
2023/04/26 09:50:39;;;;;;;11.67;6.50;;;19.60;1.00;;;;;;5102435;28;20549;-66
2023/04/26 09:53:07;;;;;;;12.93;7.23;;;19.70;1.00;;;;;;5101327;27;20471;-67
2023/04/26 09:55:34;;;;;;;9.90;6.10;;;21.80;1.00;;;;;;5096317;27;20455;-68
2023/04/26 09:58:08;;;;;;;9.80;5.50;;;24.10;1.00;;;;;;5101257;28;20491;-67
2023/04/26 10:00:38;;;;;;;11.13;6.10;;;26.00;1.00;;;;;;5099391;27;20457;-67
2023/04/26 10:03:07;;;;;;;11.27;5.90;;;25.40;1.00;;;;;;5099329;27;20478;-67
2023/04/26 10:05:35;;;;;;;11.57;7.00;;;24.50;1.00;;;;;;5103216;27;20479;-67
2023/04/26 10:08:03;;;;;;;11.20;7.43;;;23.80;1.00;;;;;;5102172;28;20558;-67
2023/04/26 10:10:33;;;;;;;10.53;5.87;;;23.80;1.00;;;;;;5100085;28;20467;-68
2023/04/26 10:13:00;;;;;;;12.60;7.90;;;24.10;1.00;;;;;;5103616;28;20474;-67
2023/04/26 10:15:28;;;;;;;17.30;8.03;;;23.30;1.00;;;;;;5101807;28;20468;-67
2023/04/26 10:17:55;;;;;;;11.17;7.30;;;22.40;1.00;;;;;;5101053;27;20467;-67
2023/04/26 10:20:26;;;;;;;14.20;7.00;;;21.50;1.00;;;;;;5098807;27;20837;-67
2023/04/26 10:23:00;;;;;;;14.07;6.57;;;20.70;1.00;;;;;;5098540;28;20512;-67
2023/04/26 10:25:36;;;;;;;10.83;5.93;;;19.80;1.00;;;;;;5095787;27;20895;-68
2023/04/26 10:28:04;;;;;;;14.53;7.10;;;19.10;1.00;;;;;;5100653;28;20469;-69
2023/04/26 10:30:32;;;;;;;10.57;6.57;;;18.60;1.00;;;;;;5100359;28;20471;-69
2023/04/26 10:33:17;;;;;;;10.53;6.13;;;18.20;1.00;;;;;;5098095;27;20459;-69
2023/04/26 10:36:07;;;;;;;16.27;7.10;;;17.70;1.00;;;;;;5102991;27;20959;-70
2023/04/26 10:38:35;;;;;;;10.70;5.47;;;17.40;1.00;;;;;;5103728;28;20459;-72
2023/04/26 10:41:44;;;;;;;12.03;6.00;;;17.20;1.50;;;;;;5098819;27;20508;-67
2023/04/26 10:44:41;;;;;;;9.50;5.73;;;17.10;1.20;;;;;;5096074;27;20808;-67
2023/04/26 10:47:21;;;;;;;10.30;5.90;;;17.10;1.30;;;;;;5089590;28;20562;-66
2023/04/26 10:49:49;;;;;;;8.47;5.60;;;17.30;2.10;;;;;;5094459;27;20473;-67
2023/04/26 10:52:19;;;;;;;8.50;5.63;;;17.50;2.10;;;;;;5101967;27;21074;-67
2023/04/26 10:54:54;;;;;;;12.17;5.73;;;17.60;1.00;;;;;;5095485;28;21253;-65
2023/04/26 10:57:22;;;;;;;10.67;5.33;;;17.50;1.00;;;;;;5106691;27;20548;-66
2023/04/26 11:00:32;;;;;;;10.20;6.53;;;17.50;1.00;;;;;;5102823;27;20466;-65
2023/04/26 11:03:05;;;;;;;17.10;6.83;;;17.70;2.30;;;;;;5100353;28;20554;-65
2023/04/26 11:05:37;;;;;;;9.33;6.00;;;17.80;2.20;;;;;;5097380;28;20461;-67
2023/04/26 11:08:05;;;;;;;12.70;6.00;;;18.00;1.30;;;;;;5099487;28;20551;-67
2023/04/26 11:10:33;;;;;;;9.27;5.50;;;18.20;1.10;;;;;;5119631;28;20471;-67
2023/04/26 11:13:02;;;;;;;9.50;5.30;;;18.40;1.00;;;;;;5119228;28;20443;-66
2023/04/26 11:15:29;;;;;;;9.27;4.80;;;18.30;1.00;;;;;;5101476;28;20463;-67
2023/04/26 11:17:56;;;;;;;10.47;4.60;;;18.00;1.00;;;;;;5096938;28;20473;-65
2023/04/26 11:20:30;;;;;;;8.70;4.97;;;17.90;1.00;;;;;;5100783;28;20472;-67
2023/04/26 11:22:57;;;;;;;8.60;4.50;;;18.00;1.00;;;;;;5100557;28;20474;-68
2023/04/26 11:25:26;;;;;;;10.23;5.00;;;17.90;1.00;;;;;;5097531;28;20841;-67
2023/04/26 11:27:57;;;;;;;8.13;4.57;;;18.00;1.00;;;;;;5095941;28;20487;-68
2023/04/26 11:30:24;;;;;;;8.90;4.57;;;18.00;1.00;;;;;;5096396;27;21684;-66
2023/04/26 11:32:51;;;;;;;10.40;4.10;;;18.10;1.00;;;;;;5075112;28;20472;-67
2023/04/26 11:35:18;;;;;;;8.37;3.77;;;18.10;1.00;;;;;;5091387;28;20495;-67
2023/04/26 11:37:48;;;;;;;7.37;4.33;;;18.10;1.00;;;;;;5089696;28;21026;-67
2023/04/26 11:40:16;;;;;;;6.80;3.67;;;18.00;1.00;;;;;;5095020;28;20463;-69
2023/04/26 11:42:44;;;;;;;7.50;4.27;;;17.80;1.00;;;;;;5099628;28;20490;-68
2023/04/26 11:45:11;;;;;;;9.77;4.53;;;17.70;1.00;;;;;;5091093;28;20573;-68
2023/04/26 11:47:39;;;;;;;8.77;4.50;;;17.40;1.00;;;;;;5090573;28;20983;-68
2023/04/26 11:50:08;;;;;;;8.80;4.20;;;17.30;1.00;;;;;;5099222;28;20468;-67
2023/04/26 11:52:35;;;;;;;8.60;4.20;;;17.20;1.10;;;;;;5095241;28;20837;-68
2023/04/26 11:55:05;;;;;;;9.13;4.07;;;17.20;1.80;;;;;;5100494;28;20493;-68
2023/04/26 11:57:33;;;;;;;7.60;4.33;;;17.30;1.30;;;;;;5103085;28;20459;-68
2023/04/26 12:00:14;;;;;;;8.07;3.80;;;17.50;1.00;;;;;;5102844;28;20486;-68
2023/04/26 12:02:45;;;;;;;7.90;4.23;;;17.60;1.00;;;;;;5106897;28;21016;-68
2023/04/26 12:05:20;;;;;;;8.67;4.27;;;17.80;1.30;;;;;;5101475;28;20486;-69
2023/04/26 12:07:51;;;;;;;10.93;3.90;;;17.90;1.70;;;;;;5099184;28;21104;-68
2023/04/26 12:10:21;;;;;;;11.73;4.03;;;17.70;1.00;;;;;;5099634;28;20564;-68
2023/04/26 12:12:49;;;;;;;7.20;3.83;;;17.40;1.00;;;;;;5102872;28;20478;-68
2023/04/26 12:15:17;;;;;;;8.17;3.97;;;17.20;1.00;;;;;;5107418;28;20487;-68
2023/04/26 12:17:58;;;;;;;11.57;4.93;;;17.10;1.00;;;;;;5098421;28;20470;-68
2023/04/26 12:20:32;;;;;;;7.97;4.70;;;17.10;1.30;;;;;;5050597;27;1593139;-67
2023/04/26 12:23:00;;;;;;;8.30;4.40;;;17.20;2.40;;;;;;5102755;27;20208;-68
2023/04/26 12:25:29;;;;;;;6.93;4.20;;;17.20;2.00;;;;;;5097479;22;20527;-68
2023/04/26 12:27:56;;;;;;;12.17;4.73;;;17.20;1.90;;;;;;5080731;28;20480;-68
2023/04/26 12:30:22;;;;;;;11.90;4.50;;;17.20;2.10;;;;;;5086162;28;20463;-67
2023/04/26 12:32:49;;;;;;;10.13;4.50;;;17.20;1.30;;;;;;5084461;28;20475;-67
2023/04/26 12:35:16;;;;;;;9.97;4.57;;;17.30;1.60;;;;;;5065288;28;20956;-67
2023/04/26 12:37:43;;;;;;;8.03;4.17;;;17.40;1.60;;;;;;5089131;28;20463;-67
2023/04/26 12:40:11;;;;;;;8.97;4.17;;;17.50;1.00;;;;;;5082519;28;20460;-67
2023/04/26 12:42:39;;;;;;;9.00;4.03;;;17.50;1.00;;;;;;5082239;28;20467;-68
2023/04/26 12:45:07;;;;;;;10.10;4.03;;;17.40;1.00;;;;;;5089161;28;20490;-68
2023/04/26 12:47:34;;;;;;;9.53;4.37;;;17.10;1.00;;;;;;5077131;28;20488;-67
2023/04/26 12:50:01;;;;;;;9.97;4.20;;;16.90;1.00;;;;;;5076710;28;20473;-69
2023/04/26 12:52:28;;;;;;;8.33;4.50;;;16.80;1.30;;;;;;5076547;28;20467;-67
2023/04/26 12:54:54;;;;;;;7.33;3.93;;;16.90;1.80;;;;;;5074356;28;20475;-69